Time;durP1;ratioP1;P1;durP2;ratioP2;P2;SDS_P1;SDS_P2;PMS_P1;PMS_P2;Temp;Humidity;BMP_temperature;BMP_pressure;BME280_temperature;BME280_humidity;BME280_pressure;Samples;Min_cycle;Max_cycle;Signal;HPM_P1;HPM_P2
2022/08/01 00:01:27;;;;;;;1.88;1.77;;;21.70;73.90;;;;;;5070818;28;20024;-85
2022/08/01 00:03:53;;;;;;;1.80;1.70;;;21.70;73.90;;;;;;5107617;28;20119;-85
2022/08/01 00:06:18;;;;;;;1.83;1.73;;;21.70;73.90;;;;;;5088037;28;20034;-86
2022/08/01 00:08:44;;;;;;;1.48;1.45;;;21.60;74.00;;;;;;5103537;28;20099;-86
2022/08/01 00:11:10;;;;;;;1.55;1.50;;;21.60;74.10;;;;;;5090764;28;20046;-86
2022/08/01 00:13:36;;;;;;;1.75;1.65;;;21.60;74.20;;;;;;5079359;28;20028;-85
2022/08/01 00:16:02;;;;;;;1.42;1.33;;;21.60;74.40;;;;;;5061796;28;20083;-85
2022/08/01 00:18:28;;;;;;;1.50;1.45;;;21.50;74.50;;;;;;5061530;28;20024;-84
2022/08/01 00:20:53;;;;;;;1.90;1.80;;;21.50;74.40;;;;;;5080570;28;20612;-85
2022/08/01 00:23:19;;;;;;;3.13;2.40;;;21.50;74.20;;;;;;5095640;28;20077;-85
2022/08/01 00:25:45;;;;;;;1.70;1.60;;;21.60;73.70;;;;;;5083672;28;20024;-85
2022/08/01 00:28:13;;;;;;;3.08;2.08;;;21.60;73.20;;;;;;5083723;28;20024;-85
2022/08/01 00:30:39;;;;;;;1.77;1.67;;;21.70;72.60;;;;;;5102794;28;20541;-86
2022/08/01 00:33:05;;;;;;;2.75;1.60;;;21.70;72.30;;;;;;5084139;28;20090;-86
2022/08/01 00:35:31;;;;;;;1.30;1.30;;;21.70;72.10;;;;;;5104002;28;20048;-86
2022/08/01 00:37:56;;;;;;;1.52;1.48;;;21.70;71.90;;;;;;5084887;28;20042;-86
2022/08/01 00:40:22;;;;;;;1.50;1.40;;;21.70;72.00;;;;;;5075202;28;20035;-87
2022/08/01 00:42:48;;;;;;;1.38;1.27;;;21.60;72.00;;;;;;5075104;28;20021;-87
2022/08/01 00:45:14;;;;;;;1.58;1.40;;;21.60;72.10;;;;;;5076821;28;20025;-87
2022/08/01 00:47:39;;;;;;;1.50;1.50;;;21.50;72.10;;;;;;5077269;28;20338;-88
2022/08/01 00:50:06;;;;;;;1.45;1.35;;;21.40;72.20;;;;;;5075725;28;20331;-88
2022/08/01 00:52:33;;;;;;;3.22;1.48;;;21.40;72.40;;;;;;5075030;28;20036;-87
2022/08/01 00:54:59;;;;;;;1.65;1.55;;;21.40;72.50;;;;;;5063273;28;20029;-87
2022/08/01 00:57:33;;;;;;;6.63;1.73;;;21.30;72.60;;;;;;5062861;28;20098;-86
2022/08/01 00:59:59;;;;;;;1.38;1.38;;;21.30;72.70;;;;;;5060692;28;20028;-86
2022/08/01 01:02:25;;;;;;;2.22;1.52;;;21.20;72.80;;;;;;5085361;28;20044;-84
2022/08/01 01:04:56;;;;;;;1.60;1.50;;;21.30;72.90;;;;;;5102573;28;20089;-87
2022/08/01 01:07:42;;;;;;;3.07;1.57;;;21.20;72.70;;;;;;5099432;28;20046;-86
2022/08/01 01:10:34;;;;;;;3.05;1.50;;;21.20;72.70;;;;;;5095681;28;20029;-87
2022/08/01 01:13:25;;;;;;;4.05;1.88;;;21.20;72.90;;;;;;5051120;28;20029;-84
2022/08/01 01:15:58;;;;;;;2.10;1.90;;;21.30;72.20;;;;;;5094875;28;20052;-85
2022/08/01 01:18:28;;;;;;;1.60;1.50;;;21.30;71.90;;;;;;5076662;28;20303;-87
2022/08/01 01:21:18;;;;;;;1.73;1.60;;;21.30;71.60;;;;;;5075387;28;20033;-87
2022/08/01 01:24:02;;;;;;;2.13;1.60;;;21.30;71.60;;;;;;5109322;28;20084;-88
2022/08/01 01:26:39;;;;;;;2.38;1.65;;;21.30;71.60;;;;;;5096710;28;20086;-87
2022/08/01 01:29:23;;;;;;;1.63;1.50;;;21.30;71.20;;;;;;5082050;28;20082;-88
2022/08/01 01:32:07;;;;;;;2.25;1.80;;;21.30;71.30;;;;;;5108585;28;20020;-88
2022/08/01 01:34:37;;;;;;;1.70;1.60;;;21.20;71.30;;;;;;5116106;28;20024;-87
2022/08/01 01:37:09;;;;;;;3.83;1.98;;;21.20;71.40;;;;;;5116292;28;20027;-86
2022/08/01 01:39:36;;;;;;;1.60;1.30;;;21.20;71.80;;;;;;5084362;28;20032;-88
2022/08/01 01:42:08;;;;;;;2.67;2.40;;;21.20;71.40;;;;;;5064650;28;20119;-88
2022/08/01 01:44:37;;;;;;;;;;;21.20;71.50;;;;;;5081029;28;20024;-88
2022/08/01 01:47:04;;;;;;;1.98;1.60;;;21.20;71.30;;;;;;5060709;28;20407;-87
2022/08/01 01:49:31;;;;;;;3.38;1.60;;;21.10;71.50;;;;;;5078340;28;20386;-88
2022/08/01 01:51:59;;;;;;;2.55;1.50;;;21.10;71.60;;;;;;5092876;28;20024;-87
2022/08/01 01:54:31;;;;;;;2.17;1.75;;;21.00;71.80;;;;;;5078873;28;20115;-87
2022/08/01 01:56:59;;;;;;;1.45;1.38;;;21.00;72.00;;;;;;5096719;28;20452;-88
2022/08/01 01:59:28;;;;;;;2.35;2.00;;;21.00;72.20;;;;;;5097471;28;20032;-88
2022/08/01 02:01:58;;;;;;;2.63;1.65;;;21.00;72.60;;;;;;5087814;28;20039;-88
2022/08/01 02:04:27;;;;;;;1.50;1.40;;;20.90;72.60;;;;;;5058028;28;20103;-89
2022/08/01 02:06:56;;;;;;;3.45;1.70;;;21.00;72.60;;;;;;5069639;28;20020;-86
2022/08/01 02:09:44;;;;;;;3.30;1.95;;;21.00;72.40;;;;;;5087324;28;20052;-85
2022/08/01 02:12:12;;;;;;;1.88;1.70;;;21.10;72.40;;;;;;5065882;28;20509;-86
2022/08/01 02:14:47;;;;;;;3.30;2.67;;;21.10;72.10;;;;;;5075731;28;20424;-86
2022/08/01 02:17:17;;;;;;;2.90;2.63;;;21.10;72.10;;;;;;5073797;28;20489;-87
2022/08/01 02:19:45;;;;;;;6.50;3.55;;;21.20;71.90;;;;;;5073347;28;20393;-89
2022/08/01 02:22:16;;;;;;;5.50;4.03;;;21.20;71.50;;;;;;5064051;28;20036;-86
2022/08/01 02:25:05;;;;;;;8.77;5.25;;;21.20;71.40;;;;;;5093673;28;20032;-88
2022/08/01 02:27:51;;;;;;;5.82;4.30;;;21.20;71.30;;;;;;5093976;28;20120;-88
2022/08/01 02:30:25;;;;;;;7.93;3.30;;;21.20;70.90;;;;;;5094575;28;20070;-88
2022/08/01 02:33:00;;;;;;;5.93;3.00;;;21.20;70.70;;;;;;5075732;28;20020;-89
2022/08/01 02:35:35;;;;;;;4.82;2.83;;;21.20;70.60;;;;;;5094137;28;20465;-87
2022/08/01 02:38:14;;;;;;;4.70;2.58;;;21.20;70.60;;;;;;5075167;28;20020;-84
2022/08/01 02:40:45;;;;;;;2.20;2.05;;;21.20;70.20;;;;;;5096255;28;20078;-86
2022/08/01 02:43:18;;;;;;;2.15;1.95;;;21.20;70.40;;;;;;5088368;28;20381;-87
2022/08/01 02:45:49;;;;;;;2.78;1.90;;;21.20;70.40;;;;;;5036255;28;20071;-87
2022/08/01 02:48:33;;;;;;;1.50;1.40;;;21.20;71.00;;;;;;5055684;28;20079;-88
2022/08/01 02:51:03;;;;;;;4.18;1.90;;;21.20;70.10;;;;;;5073085;28;20040;-88
2022/08/01 02:53:52;;;;;;;3.25;1.80;;;21.20;70.40;;;;;;5073166;28;20408;-88
2022/08/01 02:56:21;;;;;;;1.92;1.52;;;21.20;71.00;;;;;;5056846;28;20032;-87
2022/08/01 02:58:48;;;;;;;2.67;1.90;;;21.20;70.10;;;;;;5056398;28;20120;-87
2022/08/01 03:01:24;;;;;;;2.00;1.40;;;21.20;70.10;;;;;;5073715;28;20343;-88
2022/08/01 03:03:50;;;;;;;1.60;1.50;;;21.20;70.10;;;;;;5080280;28;20020;-88
2022/08/01 03:06:17;;;;;;;3.40;1.95;;;21.10;70.30;;;;;;5093733;28;20035;-88
2022/08/01 03:08:44;;;;;;;1.60;1.50;;;21.10;70.60;;;;;;5093844;28;20028;-88
2022/08/01 03:11:13;;;;;;;2.70;1.75;;;21.00;70.60;;;;;;5085319;28;20034;-88
2022/08/01 03:13:43;;;;;;;2.45;1.73;;;21.00;70.80;;;;;;5089639;28;20028;-88
2022/08/01 03:16:10;;;;;;;2.03;1.85;;;21.00;70.70;;;;;;5059690;28;20048;-87
2022/08/01 03:18:38;;;;;;;1.60;1.50;;;20.80;70.70;;;;;;5059657;28;20028;-87
2022/08/01 03:21:05;;;;;;;3.28;2.03;;;20.80;71.00;;;;;;5060236;28;20103;-88
2022/08/01 03:23:35;;;;;;;1.73;1.63;;;20.80;71.20;;;;;;5059902;28;20077;-88
2022/08/01 03:26:05;;;;;;;2.35;1.38;;;20.70;71.20;;;;;;5077506;28;20066;-88
2022/08/01 03:28:33;;;;;;;2.10;1.60;;;20.70;71.30;;;;;;5080821;28;20025;-87
2022/08/01 03:31:01;;;;;;;1.80;1.70;;;20.70;71.50;;;;;;5076420;28;20015;-84
2022/08/01 03:33:27;;;;;;;1.98;1.88;;;20.60;71.60;;;;;;5129715;28;20033;-86
2022/08/01 03:35:55;;;;;;;2.03;1.80;;;20.60;71.70;;;;;;5115400;28;20024;-85
2022/08/01 03:38:26;;;;;;;2.53;1.70;;;20.70;71.70;;;;;;5118579;28;20012;-86
2022/08/01 03:41:13;;;;;;;3.05;1.70;;;20.60;71.70;;;;;;5118303;28;20027;-87
2022/08/01 03:44:01;;;;;;;1.88;1.60;;;20.60;71.80;;;;;;5084853;28;20032;-84
2022/08/01 03:46:36;;;;;;;2.78;1.80;;;20.50;71.80;;;;;;5119221;28;20012;-85
2022/08/01 03:49:12;;;;;;;1.98;1.85;;;20.50;72.00;;;;;;5119468;28;20075;-85
2022/08/01 03:51:39;;;;;;;4.30;1.88;;;20.50;72.10;;;;;;5085419;28;20039;-87
2022/08/01 03:54:06;;;;;;;4.32;1.80;;;20.40;72.10;;;;;;5082118;28;20502;-88
2022/08/01 03:56:33;;;;;;;2.60;1.90;;;20.40;72.10;;;;;;5098705;28;20032;-88
2022/08/01 03:59:00;;;;;;;3.25;1.80;;;20.50;71.80;;;;;;5091354;28;20437;-87
2022/08/01 04:01:29;;;;;;;5.85;1.90;;;20.50;72.00;;;;;;5072482;28;20025;-87
2022/08/01 04:03:57;;;;;;;3.17;1.90;;;20.50;71.80;;;;;;5095397;28;20057;-87
2022/08/01 04:06:23;;;;;;;2.30;1.95;;;20.50;71.90;;;;;;5097334;28;20035;-88
2022/08/01 04:08:55;;;;;;;2.40;1.80;;;20.50;71.90;;;;;;5075020;28;20070;-87
2022/08/01 04:11:27;;;;;;;2.25;1.90;;;20.40;72.00;;;;;;5084582;28;20031;-87
2022/08/01 04:13:53;;;;;;;3.38;1.98;;;20.40;72.40;;;;;;5072912;28;20024;-86
2022/08/01 04:16:22;;;;;;;3.53;2.08;;;20.40;72.60;;;;;;5096814;28;20030;-86
2022/08/01 04:18:48;;;;;;;1.85;1.75;;;20.40;72.60;;;;;;5096636;28;20497;-87
2022/08/01 04:21:17;;;;;;;1.90;1.80;;;20.40;72.50;;;;;;5096024;28;20054;-86
2022/08/01 04:23:46;;;;;;;2.28;2.05;;;20.50;72.40;;;;;;5076714;28;20401;-86
2022/08/01 04:26:14;;;;;;;2.15;1.88;;;20.50;72.20;;;;;;5096343;28;20692;-86
2022/08/01 04:28:41;;;;;;;1.90;1.80;;;20.50;72.40;;;;;;5096711;28;20019;-86
2022/08/01 04:31:12;;;;;;;1.88;1.65;;;20.50;72.40;;;;;;5097611;28;20027;-86
2022/08/01 04:33:47;;;;;;;1.65;1.55;;;20.50;72.40;;;;;;5097423;28;20047;-87
2022/08/01 04:36:15;;;;;;;2.67;1.42;;;20.50;72.50;;;;;;5079906;28;20654;-85
2022/08/01 04:38:45;;;;;;;2.15;1.98;;;20.50;72.40;;;;;;5100380;28;20034;-85
2022/08/01 04:41:13;;;;;;;3.70;1.95;;;20.50;72.10;;;;;;5073871;28;20024;-86
2022/08/01 04:43:39;;;;;;;1.70;1.60;;;20.50;72.40;;;;;;5086673;28;20024;-83
2022/08/01 04:46:07;;;;;;;2.78;1.90;;;20.60;72.00;;;;;;5097285;28;20012;-83
2022/08/01 04:48:36;;;;;;;3.40;1.80;;;20.70;71.80;;;;;;5094743;28;20087;-85
2022/08/01 04:51:02;;;;;;;2.00;1.63;;;20.80;71.60;;;;;;5083962;28;20138;-85
2022/08/01 04:53:28;;;;;;;2.20;1.63;;;20.90;71.20;;;;;;5094774;28;20040;-83
2022/08/01 04:55:53;;;;;;;3.20;1.95;;;21.00;70.90;;;;;;5098432;28;20112;-83
2022/08/01 04:58:19;;;;;;;2.33;1.90;;;21.20;70.30;;;;;;5108053;28;20024;-86
2022/08/01 05:00:48;;;;;;;2.55;2.10;;;21.30;69.60;;;;;;5086058;28;20031;-85
2022/08/01 05:03:13;;;;;;;3.35;1.90;;;21.50;69.10;;;;;;5084681;28;20469;-86
2022/08/01 05:05:40;;;;;;;3.00;2.25;;;21.60;68.60;;;;;;5081564;28;20028;-85
2022/08/01 05:08:06;;;;;;;2.55;1.77;;;21.70;68.30;;;;;;5046982;28;20028;-85
2022/08/01 05:10:32;;;;;;;3.15;2.30;;;21.80;67.70;;;;;;5073277;28;20103;-86
2022/08/01 05:12:58;;;;;;;2.55;1.90;;;21.90;67.40;;;;;;5079795;28;20024;-86
2022/08/01 05:15:23;;;;;;;2.08;1.88;;;22.00;67.00;;;;;;5094268;28;20036;-85
2022/08/01 05:17:49;;;;;;;4.10;2.10;;;22.00;67.10;;;;;;5097331;28;20071;-85
2022/08/01 05:20:15;;;;;;;2.63;2.03;;;22.00;67.00;;;;;;5104072;28;20016;-86
2022/08/01 05:22:42;;;;;;;2.40;1.80;;;22.00;67.00;;;;;;5096979;28;20028;-85
2022/08/01 05:25:08;;;;;;;2.30;2.10;;;22.10;66.80;;;;;;5097535;28;20097;-84
2022/08/01 05:27:43;;;;;;;1.88;1.77;;;22.20;66.70;;;;;;5102263;28;20036;-87
2022/08/01 05:30:09;;;;;;;1.92;1.70;;;22.30;66.60;;;;;;5108416;28;20024;-85
2022/08/01 05:32:36;;;;;;;2.30;1.60;;;22.50;65.80;;;;;;5087495;28;20333;-85
2022/08/01 05:35:02;;;;;;;3.17;1.73;;;22.60;65.10;;;;;;5100089;28;20105;-85
2022/08/01 05:37:29;;;;;;;2.65;1.67;;;22.70;64.40;;;;;;5083713;28;20036;-84
2022/08/01 05:39:54;;;;;;;3.40;1.95;;;23.00;64.00;;;;;;5111324;28;20036;-84
2022/08/01 05:42:20;;;;;;;3.65;2.88;;;23.20;63.80;;;;;;5083063;28;20524;-84
2022/08/01 05:44:47;;;;;;;3.72;2.70;;;23.50;63.10;;;;;;5082031;28;20016;-85
2022/08/01 05:47:13;;;;;;;2.63;2.30;;;24.20;61.50;;;;;;5082979;28;20028;-86
2022/08/01 05:49:38;;;;;;;2.45;1.95;;;25.00;59.10;;;;;;5081067;28;20048;-85
2022/08/01 05:52:05;;;;;;;2.22;1.83;;;25.50;58.00;;;;;;5079239;28;20020;-84
2022/08/01 05:54:31;;;;;;;3.00;2.42;;;25.50;57.50;;;;;;5078014;28;20016;-84
2022/08/01 05:56:59;;;;;;;2.72;2.13;;;25.20;57.50;;;;;;5090021;28;20070;-85
2022/08/01 05:59:25;;;;;;;3.45;1.98;;;24.70;58.40;;;;;;5094094;28;20028;-85
2022/08/01 06:01:52;;;;;;;2.45;1.77;;;24.10;59.90;;;;;;5082755;28;20047;-86
2022/08/01 06:04:17;;;;;;;2.30;2.10;;;24.90;60.00;;;;;;5089906;28;20085;-85
2022/08/01 06:06:43;;;;;;;4.10;2.53;;;27.80;55.60;;;;;;5080748;28;20150;-85
2022/08/01 06:09:09;;;;;;;2.42;1.92;;;30.50;50.70;;;;;;5081019;28;20020;-85
2022/08/01 06:11:34;;;;;;;3.70;2.22;;;32.50;47.40;;;;;;5090370;28;20032;-85
2022/08/01 06:14:00;;;;;;;2.15;1.83;;;33.60;45.30;;;;;;5099741;28;20028;-85
2022/08/01 06:16:26;;;;;;;3.92;2.08;;;34.40;43.90;;;;;;5098410;28;20020;-85
2022/08/01 06:18:51;;;;;;;2.15;1.95;;;35.00;43.20;;;;;;5098282;28;20036;-85
2022/08/01 06:21:17;;;;;;;2.10;1.90;;;35.30;41.80;;;;;;5081701;28;20028;-85
2022/08/01 06:23:43;;;;;;;2.13;1.92;;;35.40;41.70;;;;;;5098659;28;20138;-85
2022/08/01 06:26:09;;;;;;;2.30;2.17;;;35.40;41.90;;;;;;5099300;28;20039;-85
2022/08/01 06:28:35;;;;;;;2.75;2.38;;;35.80;41.60;;;;;;5100913;28;20020;-84
2022/08/01 06:31:01;;;;;;;3.40;2.55;;;36.10;40.80;;;;;;5100388;28;20103;-84
2022/08/01 06:33:28;;;;;;;2.20;2.00;;;36.10;40.70;;;;;;5100523;28;20024;-85
2022/08/01 06:35:53;;;;;;;5.20;2.50;;;36.30;40.30;;;;;;5100167;28;20455;-85
2022/08/01 06:38:19;;;;;;;6.07;2.40;;;36.80;39.40;;;;;;5095673;28;20021;-85
2022/08/01 06:40:45;;;;;;;5.10;3.08;;;36.40;39.60;;;;;;5090324;28;20187;-85
2022/08/01 06:43:13;;;;;;;4.85;2.08;;;36.00;40.10;;;;;;5062113;28;20044;-86
2022/08/01 06:45:40;;;;;;;2.10;2.00;;;35.90;40.90;;;;;;5080913;28;20060;-84
2022/08/01 06:48:05;;;;;;;3.85;2.10;;;36.40;40.10;;;;;;5077730;28;20034;-85
2022/08/01 06:50:32;;;;;;;1.95;1.83;;;36.50;39.60;;;;;;5104250;28;20043;-85
2022/08/01 06:52:58;;;;;;;3.28;1.90;;;36.50;39.80;;;;;;5103563;28;20041;-87
2022/08/01 06:55:23;;;;;;;4.00;2.47;;;36.70;40.10;;;;;;5084733;28;20059;-84
2022/08/01 06:57:51;;;;;;;4.05;3.33;;;37.00;39.20;;;;;;5070223;28;20058;-85
2022/08/01 07:00:22;;;;;;;2.47;2.33;;;37.20;39.30;;;;;;5061631;28;20020;-85
2022/08/01 07:02:51;;;;;;;4.93;2.50;;;37.00;39.10;;;;;;5062782;28;20039;-85
2022/08/01 07:05:17;;;;;;;2.92;2.55;;;36.60;39.40;;;;;;5063945;28;20060;-85
2022/08/01 07:07:43;;;;;;;4.57;2.30;;;36.20;39.50;;;;;;5077753;28;20079;-85
2022/08/01 07:10:11;;;;;;;3.47;2.30;;;35.60;40.60;;;;;;5096812;28;20361;-86
2022/08/01 07:12:37;;;;;;;4.60;2.40;;;35.50;41.00;;;;;;5064150;28;20051;-85
2022/08/01 07:15:11;;;;;;;5.80;2.35;;;34.60;41.20;;;;;;5064617;28;20052;-84
2022/08/01 07:17:38;;;;;;;2.53;2.33;;;31.70;43.40;;;;;;5068727;28;20024;-85
2022/08/01 07:20:06;;;;;;;3.00;2.40;;;29.00;47.60;;;;;;5078269;28;20095;-86
2022/08/01 07:22:32;;;;;;;2.60;2.22;;;27.20;51.40;;;;;;5083663;28;20016;-87
2022/08/01 07:24:57;;;;;;;2.45;2.22;;;25.90;54.00;;;;;;5082763;28;20031;-85
2022/08/01 07:27:23;;;;;;;4.07;2.15;;;25.20;56.00;;;;;;5103517;28;20043;-87
2022/08/01 07:29:51;;;;;;;2.60;2.40;;;24.80;57.50;;;;;;5082802;28;20021;-87
2022/08/01 07:32:17;;;;;;;4.35;2.70;;;24.40;58.50;;;;;;5082465;28;20056;-86
2022/08/01 07:34:43;;;;;;;8.10;2.67;;;24.20;59.30;;;;;;5085680;28;20032;-86
2022/08/01 07:37:08;;;;;;;4.63;2.42;;;24.00;59.80;;;;;;5098087;28;20092;-92
2022/08/01 07:39:34;;;;;;;4.47;2.53;;;23.90;60.20;;;;;;5098623;28;20008;-89
2022/08/01 07:42:00;;;;;;;3.35;2.55;;;23.90;60.80;;;;;;5116555;28;20040;-89
2022/08/01 07:44:26;;;;;;;3.15;2.40;;;23.80;60.90;;;;;;5098792;28;20008;-92
2022/08/01 07:46:52;;;;;;;8.73;2.58;;;23.80;61.40;;;;;;5098434;28;20023;-92
2022/08/01 07:49:18;;;;;;;2.30;2.10;;;23.90;61.40;;;;;;5098596;28;20129;-91
2022/08/01 07:51:43;;;;;;;3.83;2.50;;;23.90;61.20;;;;;;5098512;28;20081;-89
2022/08/01 07:54:09;;;;;;;7.00;3.08;;;24.00;61.20;;;;;;5098307;28;20020;-88
2022/08/01 07:56:35;;;;;;;3.00;2.65;;;24.00;61.30;;;;;;5098328;28;20028;-86
2022/08/01 07:59:00;;;;;;;3.22;2.70;;;24.10;61.10;;;;;;5093932;28;20012;-85
2022/08/01 08:01:27;;;;;;;3.35;2.47;;;24.10;61.30;;;;;;5088794;28;20020;-85
2022/08/01 08:03:52;;;;;;;2.47;2.22;;;24.10;61.30;;;;;;5114248;28;20045;-85
2022/08/01 08:06:21;;;;;;;3.90;2.67;;;24.20;61.40;;;;;;5123817;28;20073;-85
2022/08/01 08:08:47;;;;;;;3.55;2.70;;;24.30;61.30;;;;;;5087467;28;20020;-84
2022/08/01 08:11:13;;;;;;;2.45;2.20;;;24.40;61.20;;;;;;5092221;28;20424;-85
2022/08/01 08:13:39;;;;;;;2.65;2.30;;;24.50;61.20;;;;;;5065420;28;20524;-85
2022/08/01 08:16:05;;;;;;;2.58;2.20;;;24.50;60.70;;;;;;5101037;28;20039;-84
2022/08/01 08:18:31;;;;;;;2.15;1.95;;;24.60;60.70;;;;;;5103325;28;20020;-84
2022/08/01 08:20:56;;;;;;;2.50;2.30;;;24.70;60.40;;;;;;5108815;28;20043;-84
2022/08/01 08:26:06;;;;;;;2.80;2.20;;;24.80;60.50;;;;;;5096167;28;20102;-82
2022/08/01 08:28:32;;;;;;;2.95;2.35;;;24.90;60.30;;;;;;5097438;28;20021;-84
2022/08/01 08:30:58;;;;;;;2.20;2.03;;;25.00;59.70;;;;;;5114460;28;20026;-83
2022/08/01 08:33:24;;;;;;;3.67;2.25;;;25.20;59.60;;;;;;5115616;28;20032;-83
2022/08/01 08:35:49;;;;;;;4.00;2.38;;;25.20;58.80;;;;;;5102503;28;20043;-82
2022/08/01 08:38:15;;;;;;;2.75;2.50;;;25.20;59.20;;;;;;5103423;28;20087;-84
2022/08/01 08:40:41;;;;;;;3.45;2.35;;;25.20;59.60;;;;;;5094098;28;20031;-83
2022/08/01 08:43:07;;;;;;;5.60;3.30;;;25.20;59.10;;;;;;5102021;28;20090;-83
2022/08/01 08:45:33;;;;;;;2.88;2.67;;;25.30;59.30;;;;;;5083838;28;20043;-82
2022/08/01 08:48:00;;;;;;;6.75;2.75;;;25.40;59.30;;;;;;5100302;28;20020;-83
2022/08/01 08:50:26;;;;;;;4.65;3.00;;;25.40;58.80;;;;;;5093937;28;20028;-82
2022/08/01 08:52:54;;;;;;;2.70;2.50;;;25.60;59.20;;;;;;5081530;28;20046;-83
2022/08/01 08:55:20;;;;;;;3.53;2.15;;;25.70;58.60;;;;;;5063380;28;20032;-83
2022/08/01 08:57:47;;;;;;;2.78;2.20;;;25.90;58.00;;;;;;5082429;28;20358;-84
2022/08/01 09:00:14;;;;;;;4.25;2.15;;;26.00;57.50;;;;;;5084531;28;20102;-84
2022/08/01 09:02:44;;;;;;;2.35;2.15;;;26.10;57.00;;;;;;5065238;28;20101;-83
2022/08/01 09:05:11;;;;;;;2.83;2.28;;;26.10;56.80;;;;;;5064526;28;20058;-82
2022/08/01 09:07:38;;;;;;;4.55;2.58;;;26.30;56.80;;;;;;5071149;28;20027;-81
2022/08/01 09:10:05;;;;;;;3.50;2.15;;;26.30;56.30;;;;;;5095497;28;20039;-81
2022/08/01 09:12:30;;;;;;;3.42;2.35;;;26.40;55.80;;;;;;5101722;28;20028;-83
2022/08/01 09:14:56;;;;;;;3.72;2.35;;;26.40;55.90;;;;;;5105182;28;20083;-81
2022/08/01 09:17:22;;;;;;;3.22;2.35;;;26.50;56.00;;;;;;5112782;28;20035;-83
2022/08/01 09:19:54;;;;;;;5.45;2.70;;;26.60;56.30;;;;;;5102805;28;20012;-83
2022/08/01 09:22:22;;;;;;;6.75;2.70;;;26.70;55.50;;;;;;5102178;28;20031;-83
2022/08/01 09:24:59;;;;;;;2.55;2.08;;;26.80;54.80;;;;;;5101807;28;20025;-83
2022/08/01 09:27:25;;;;;;;2.08;1.88;;;26.80;55.10;;;;;;5083504;28;20550;-83
2022/08/01 09:29:52;;;;;;;3.28;1.77;;;27.00;55.10;;;;;;5084880;28;20048;-83
2022/08/01 09:32:19;;;;;;;5.03;2.45;;;27.10;54.40;;;;;;5102490;28;20046;-83
2022/08/01 09:34:46;;;;;;;3.60;2.00;;;27.20;54.90;;;;;;5104515;28;20502;-85
2022/08/01 09:37:13;;;;;;;7.22;2.10;;;27.30;53.80;;;;;;5102469;28;20227;-84
2022/08/01 09:39:42;;;;;;;3.83;2.03;;;27.50;53.40;;;;;;5102000;28;20028;-83
2022/08/01 09:42:26;;;;;;;2.75;1.67;;;27.60;52.90;;;;;;5088615;28;20019;-84
2022/08/01 09:44:52;;;;;;;1.83;1.65;;;27.50;53.10;;;;;;5097718;28;20031;-84
2022/08/01 09:47:23;;;;;;;4.07;1.80;;;27.50;52.80;;;;;;5102494;28;20520;-83
2022/08/01 09:49:57;;;;;;;4.13;1.80;;;27.40;52.90;;;;;;5084854;28;20043;-82
2022/08/01 09:52:25;;;;;;;4.82;1.80;;;27.50;53.40;;;;;;5097059;28;20074;-84
2022/08/01 09:55:00;;;;;;;2.13;1.80;;;27.70;53.40;;;;;;5083536;28;20074;-83
2022/08/01 09:57:27;;;;;;;3.53;1.88;;;27.80;53.30;;;;;;5064331;28;20024;-81
2022/08/01 09:59:58;;;;;;;2.45;2.00;;;28.00;52.70;;;;;;5082601;28;20043;-83
2022/08/01 10:02:32;;;;;;;2.75;1.90;;;28.10;52.40;;;;;;5082390;28;20028;-83
2022/08/01 10:04:59;;;;;;;2.35;2.00;;;28.20;52.00;;;;;;5047810;28;20021;-82
2022/08/01 10:07:25;;;;;;;2.10;1.90;;;28.20;52.10;;;;;;5082534;28;20043;-84
2022/08/01 10:09:51;;;;;;;1.70;1.60;;;28.40;51.90;;;;;;5094902;28;20028;-84
2022/08/01 10:12:21;;;;;;;1.98;1.88;;;28.50;51.80;;;;;;5086800;28;20100;-83
2022/08/01 10:14:49;;;;;;;2.17;1.98;;;28.70;51.50;;;;;;5101751;28;20043;-83
2022/08/01 10:17:17;;;;;;;3.03;2.50;;;28.80;50.90;;;;;;5082924;28;20028;-84
2022/08/01 10:19:43;;;;;;;2.03;1.80;;;28.50;51.30;;;;;;5101311;28;20028;-82
2022/08/01 10:22:13;;;;;;;2.92;1.60;;;28.30;52.00;;;;;;5082719;28;20073;-83
2022/08/01 10:24:40;;;;;;;2.20;1.50;;;28.20;51.90;;;;;;5097842;28;20085;-83
2022/08/01 10:27:10;;;;;;;1.75;1.65;;;28.40;52.30;;;;;;5102326;28;20058;-84
2022/08/01 10:29:41;;;;;;;2.08;1.88;;;28.60;51.20;;;;;;5101682;28;20020;-83
2022/08/01 10:32:09;;;;;;;1.60;1.50;;;28.70;51.40;;;;;;5084846;28;20028;-84
2022/08/01 10:34:36;;;;;;;1.70;1.60;;;28.50;51.30;;;;;;5082592;28;20393;-83
2022/08/01 10:37:03;;;;;;;1.65;1.55;;;28.40;51.70;;;;;;5100512;28;20028;-83
2022/08/01 10:39:31;;;;;;;1.98;1.63;;;28.50;51.50;;;;;;5074462;28;20069;-83
2022/08/01 10:41:57;;;;;;;2.53;1.50;;;28.60;51.10;;;;;;5070483;28;20091;-83
2022/08/01 10:44:25;;;;;;;3.42;1.63;;;28.60;51.20;;;;;;5071837;28;20052;-83
2022/08/01 10:46:57;;;;;;;3.03;2.38;;;28.80;51.00;;;;;;5100708;28;20032;-82
2022/08/01 10:49:28;;;;;;;1.88;1.70;;;29.10;50.20;;;;;;5113734;28;20048;-84
2022/08/01 10:51:55;;;;;;;2.05;1.80;;;29.20;49.80;;;;;;5111690;28;20047;-83
2022/08/01 10:54:24;;;;;;;2.17;1.98;;;29.40;49.40;;;;;;5098644;28;20024;-82
2022/08/01 10:56:52;;;;;;;2.80;1.85;;;29.40;49.40;;;;;;5099758;28;20448;-82
2022/08/01 10:59:28;;;;;;;1.90;1.80;;;29.60;49.20;;;;;;5084225;28;20049;-83
2022/08/01 11:01:58;;;;;;;1.80;1.70;;;29.90;48.80;;;;;;5091307;28;20032;-83
2022/08/01 11:04:35;;;;;;;3.55;1.70;;;30.10;48.70;;;;;;5064708;28;20038;-85
2022/08/01 11:07:20;;;;;;;2.92;1.92;;;30.20;48.10;;;;;;5099463;28;20020;-82
2022/08/01 11:09:49;;;;;;;2.63;1.80;;;30.00;48.00;;;;;;5100807;28;20495;-82
2022/08/01 11:12:17;;;;;;;2.15;1.85;;;30.00;48.50;;;;;;5100891;28;20074;-83
2022/08/01 11:14:58;;;;;;;2.20;1.90;;;29.90;48.70;;;;;;5095198;28;20016;-83
2022/08/01 11:17:51;;;;;;;2.28;1.60;;;29.70;48.80;;;;;;5059567;28;20447;-82
2022/08/01 11:20:17;;;;;;;4.75;1.60;;;29.70;49.20;;;;;;5088470;28;20089;-83
2022/08/01 11:23:03;;;;;;;1.95;1.45;;;29.80;48.00;;;;;;5094442;28;20029;-84
2022/08/01 11:25:46;;;;;;;2.03;1.65;;;29.80;48.20;;;;;;5076825;28;20067;-83
2022/08/01 11:28:17;;;;;;;1.88;1.73;;;29.40;48.50;;;;;;5077413;28;20001;-85
2022/08/01 11:30:46;;;;;;;5.38;1.40;;;29.40;49.30;;;;;;5111702;28;20071;-84
2022/08/01 11:33:14;;;;;;;1.77;1.67;;;29.60;48.50;;;;;;5118474;28;20087;-83
2022/08/01 11:36:12;;;;;;;1.70;1.58;;;29.60;48.90;;;;;;5139142;28;20035;-83
2022/08/01 11:38:43;;;;;;;2.92;1.30;;;29.90;48.20;;;;;;5121401;28;20031;-84
2022/08/01 11:41:33;;;;;;;3.42;1.65;;;30.20;47.50;;;;;;5108627;28;20067;-83
2022/08/01 11:44:06;;;;;;;1.63;1.50;;;30.20;46.50;;;;;;5098425;28;20501;-84
2022/08/01 11:46:58;;;;;;;3.22;1.77;;;29.90;47.30;;;;;;5096842;28;20029;-84
2022/08/01 11:49:36;;;;;;;2.03;1.65;;;29.90;47.50;;;;;;5098533;28;20058;-84
2022/08/01 11:52:07;;;;;;;2.92;2.03;;;30.30;47.10;;;;;;5099351;28;20009;-85
2022/08/01 11:54:42;;;;;;;1.95;1.80;;;30.60;46.00;;;;;;5098579;28;20036;-83
2022/08/01 11:57:37;;;;;;;2.05;1.30;;;30.40;45.90;;;;;;5098304;28;20056;-83
2022/08/01 12:00:16;;;;;;;3.13;1.63;;;30.40;46.20;;;;;;5097211;28;20107;-84
2022/08/01 12:02:42;;;;;;;2.03;1.90;;;30.70;46.30;;;;;;5098098;28;20132;-85
2022/08/01 12:05:16;;;;;;;5.38;1.30;;;30.80;45.70;;;;;;5098794;28;20021;-84
2022/08/01 12:07:43;;;;;;;1.83;1.73;;;31.00;44.50;;;;;;5098560;28;20005;-84
2022/08/01 12:10:12;;;;;;;1.65;1.40;;;31.20;44.00;;;;;;5098261;28;20023;-85
2022/08/01 12:12:44;;;;;;;1.55;1.48;;;31.10;44.60;;;;;;5098816;28;20012;-84
2022/08/01 12:15:10;;;;;;;2.65;1.42;;;31.10;44.60;;;;;;5097937;28;20049;-82
2022/08/01 12:17:46;;;;;;;1.35;1.25;;;31.40;44.20;;;;;;5098844;28;20080;-82
2022/08/01 12:20:21;;;;;;;1.40;1.30;;;31.80;43.00;;;;;;5099278;28;20059;-82
2022/08/01 12:22:48;;;;;;;1.25;1.23;;;32.10;42.80;;;;;;5098430;28;20013;-82
2022/08/01 12:25:16;;;;;;;1.13;1.13;;;32.30;41.80;;;;;;5099567;28;20039;-84
2022/08/01 12:27:43;;;;;;;1.98;1.55;;;32.30;41.10;;;;;;5099427;28;20024;-84
2022/08/01 12:30:14;;;;;;;4.38;1.30;;;32.20;41.50;;;;;;5099259;28;20043;-84
2022/08/01 12:32:42;;;;;;;1.65;1.55;;;32.30;41.20;;;;;;5099652;28;20028;-83
2022/08/01 12:35:13;;;;;;;2.05;1.40;;;32.30;41.50;;;;;;5108909;28;20032;-84
2022/08/01 12:37:41;;;;;;;2.85;1.48;;;32.30;41.60;;;;;;5096612;28;20076;-84
2022/08/01 12:40:11;;;;;;;1.50;1.23;;;32.00;42.00;;;;;;5100482;28;20012;-82
2022/08/01 12:42:39;;;;;;;2.05;1.27;;;32.00;42.90;;;;;;5087678;28;20017;-83
2022/08/01 12:45:08;;;;;;;2.72;1.30;;;31.80;41.90;;;;;;5085119;28;20030;-83
2022/08/01 12:47:36;;;;;;;1.60;1.50;;;31.50;42.00;;;;;;5101972;28;20031;-83
2022/08/01 12:50:05;;;;;;;2.40;1.70;;;31.00;42.90;;;;;;5098073;28;20021;-82
2022/08/01 12:52:31;;;;;;;1.77;1.40;;;30.50;43.90;;;;;;5114280;28;20038;-83
2022/08/01 12:55:05;;;;;;;2.47;1.40;;;30.40;44.20;;;;;;5126854;28;20039;-84
2022/08/01 12:57:31;;;;;;;3.67;1.50;;;30.40;44.00;;;;;;5099533;28;20031;-83
2022/08/01 13:00:13;;;;;;;1.20;1.17;;;30.60;43.70;;;;;;5086275;28;20359;-83
2022/08/01 13:02:40;;;;;;;1.63;1.20;;;31.00;43.50;;;;;;5105362;28;20013;-84